Gordonville, Missouri
Current Conditions -  °F | °C
As of 6:53 PM on Thursday 27 Nov 2014 (Local Time) from KCGI Reporting Station
Clear Clear  
Wind Chill: 30°   Ceiling: Unl
Heat Index: 30°   Visibility: 10mi
Dew Point: 26°   Wind: 3mph
Humidity: 85%   Direction: 100°E
Pressure: 30.48"   Gusts: NA
Location:  37.31°N, 89.68°W
Report Text: KCGI 280053Z AUTO 10003KT 10SM CLR M01/M03 A3048 RMK AO2 SLP324 T10111033 TSNO
Loading
Personal Weather Stations






























Interactive Weather Map New forecast layout! Learn more

10-Day Weather Forecast

Advertisements
Track Severe Weather on mobile